Elena Of London — 2COR3 — position and weather

sailwx.info

Track history (hours):
 
Tides and Currents Weather Stations Pressure Air Temp Water Temp Dewpoint Dewpoint Depression Visibility Wind Speed Wind Dir Waves Ship Positions

Elena Of London

Last reported at 2016-Jul-28 11:06 UTC. Time now 2016-Jul-31 00:19 UTC.
Position N 43°49' E 007°48'.

Length 44 m; draft 5.2 m.

Type: Sailing vessel. MMSI: 235074534.

Date/timePositionNaut miles runAvg speedWind from/ knotsBaromVisibWave heightAir tempDewpointWater temp
2016-Jul-28 11:06N 43°49' E 007°48'0 0.0
2016-Jul-26 10:27N 43°49' E 007°48'0 0.0
2016-Jul-25 12:15N 43°49' E 007°48'0 0.0
2016-Jul-25 11:33N 43°49' E 007°48'  
2016-Jul-22 14:23N 43°49' E 007°48'0 0.0
2016-Jul-22 13:32N 43°49' E 007°48'0 0.0
2016-Jul-21 13:29N 43°49' E 007°48'0 0.0
2016-Jul-20 10:08N 43°49' E 007°48'0 0.0
2016-Jul-20 09:32N 43°49' E 007°48'0 0.0
2016-Jul-20 05:29N 43°49' E 007°48'0 0.0
2016-Jul-19 17:13N 43°49' E 007°48'0 0.0
2016-Jul-19 16:33N 43°49' E 007°48'0 0.0
2016-Jul-19 10:33N 43°49' E 007°48'0 0.0
2016-Jul-19 08:22N 43°49' E 007°48'0 0.0
2016-Jul-19 07:20N 43°49' E 007°48'16 1.1
2016-Jul-18 16:21N 43°35' E 007°57'9 9.5
2016-Jul-18 15:26N 43°27' E 008°03'8 9.6
2016-Jul-18 14:33N 43°20' E 008°08'9 9.5
2016-Jul-18 13:33N 43°11' E 008°14'10 9.6
2016-Jul-18 12:33N 43°03' E 008°20'1010.4
2016-Jul-18 11:33N 42°53' E 008°27'  
Track history (hours):
 
Tides and Currents Weather Stations Pressure Air Temp Water Temp Dewpoint Dewpoint Depression Visibility Wind Speed Wind Dir Waves Ship Positions

Elena Of London

Last reported at 2016-Jul-28 11:06 UTC. Time now 2016-Jul-31 00:19 UTC.
Position N 43°49' E 007°48'.

Length 44 m; draft 5.2 m.

Type: Sailing vessel. MMSI: 235074534.

Date/timePositionNaut miles runAvg speedWind from/ knotsBaromVisibWave heightAir tempDewpointWater temp
2016-Jul-28 11:06N 43°49' E 007°48'0 0.0
2016-Jul-26 10:27N 43°49' E 007°48'0 0.0
2016-Jul-25 12:15N 43°49' E 007°48'0 0.0
2016-Jul-25 11:33N 43°49' E 007°48'  
2016-Jul-22 14:23N 43°49' E 007°48'0 0.0
2016-Jul-22 13:32N 43°49' E 007°48'0 0.0
2016-Jul-21 13:29N 43°49' E 007°48'0 0.0
2016-Jul-20 10:08N 43°49' E 007°48'0 0.0
2016-Jul-20 09:32N 43°49' E 007°48'0 0.0
2016-Jul-20 05:29N 43°49' E 007°48'0 0.0
2016-Jul-19 17:13N 43°49' E 007°48'0 0.0
2016-Jul-19 16:33N 43°49' E 007°48'0 0.0
2016-Jul-19 10:33N 43°49' E 007°48'0 0.0
2016-Jul-19 08:22N 43°49' E 007°48'0 0.0
2016-Jul-19 07:20N 43°49' E 007°48'16 1.1
2016-Jul-18 16:21N 43°35' E 007°57'9 9.5
2016-Jul-18 15:26N 43°27' E 008°03'8 9.6
2016-Jul-18 14:33N 43°20' E 008°08'9 9.5
2016-Jul-18 13:33N 43°11' E 008°14'10 9.6
2016-Jul-18 12:33N 43°03' E 008°20'1010.4
2016-Jul-18 11:33N 42°53' E 008°27'  

Dump ship's entire track history